sensor_id;sensor_type;location;lat;lon;timestamp;temperature;humidity
11647;DHT22;5880;52.342;9.662;2023-02-20T00:01:25;9.40;68.20
11647;DHT22;5880;52.342;9.662;2023-02-20T00:03:52;9.40;68.10
11647;DHT22;5880;52.342;9.662;2023-02-20T00:06:18;9.40;68.00
11647;DHT22;5880;52.342;9.662;2023-02-20T00:08:43;9.40;68.10
11647;DHT22;5880;52.342;9.662;2023-02-20T00:11:09;9.50;68.20
11647;DHT22;5880;52.342;9.662;2023-02-20T00:13:34;9.50;68.20
11647;DHT22;5880;52.342;9.662;2023-02-20T00:16:00;9.50;68.20
11647;DHT22;5880;52.342;9.662;2023-02-20T00:18:26;9.50;68.10
11647;DHT22;5880;52.342;9.662;2023-02-20T00:20:51;9.50;68.10
11647;DHT22;5880;52.342;9.662;2023-02-20T00:23:17;9.50;68.00
11647;DHT22;5880;52.342;9.662;2023-02-20T00:25:43;9.50;68.00
11647;DHT22;5880;52.342;9.662;2023-02-20T00:28:08;9.50;68.00
11647;DHT22;5880;52.342;9.662;2023-02-20T00:30:34;9.60;68.00
11647;DHT22;5880;52.342;9.662;2023-02-20T00:33:00;9.60;67.90
11647;DHT22;5880;52.342;9.662;2023-02-20T00:35:26;9.60;67.90
11647;DHT22;5880;52.342;9.662;2023-02-20T00:37:53;9.60;68.00
11647;DHT22;5880;52.342;9.662;2023-02-20T00:40:22;9.60;68.10
11647;DHT22;5880;52.342;9.662;2023-02-20T00:42:49;9.60;67.90
11647;DHT22;5880;52.342;9.662;2023-02-20T00:45:16;9.60;67.80
11647;DHT22;5880;52.342;9.662;2023-02-20T00:47:42;9.60;67.70
11647;DHT22;5880;52.342;9.662;2023-02-20T00:50:09;9.60;67.70
11647;DHT22;5880;52.342;9.662;2023-02-20T00:52:36;9.60;67.70
11647;DHT22;5880;52.342;9.662;2023-02-20T00:55:04;9.60;67.70
11647;DHT22;5880;52.342;9.662;2023-02-20T00:57:30;9.70;67.70
11647;DHT22;5880;52.342;9.662;2023-02-20T00:59:55;9.60;67.50
11647;DHT22;5880;52.342;9.662;2023-02-20T01:02:21;9.60;67.50
11647;DHT22;5880;52.342;9.662;2023-02-20T01:04:47;9.60;67.50
11647;DHT22;5880;52.342;9.662;2023-02-20T01:07:13;9.60;67.40
11647;DHT22;5880;52.342;9.662;2023-02-20T01:09:39;9.60;67.40
11647;DHT22;5880;52.342;9.662;2023-02-20T01:12:04;9.60;67.50
11647;DHT22;5880;52.342;9.662;2023-02-20T01:14:30;9.60;67.50
11647;DHT22;5880;52.342;9.662;2023-02-20T01:16:56;9.60;67.50
11647;DHT22;5880;52.342;9.662;2023-02-20T01:19:23;9.60;67.50
11647;DHT22;5880;52.342;9.662;2023-02-20T01:21:49;9.60;67.60
11647;DHT22;5880;52.342;9.662;2023-02-20T01:24:16;9.60;67.60
11647;DHT22;5880;52.342;9.662;2023-02-20T01:26:44;9.60;67.60
11647;DHT22;5880;52.342;9.662;2023-02-20T01:29:11;9.50;67.50
11647;DHT22;5880;52.342;9.662;2023-02-20T01:31:37;9.60;67.50
11647;DHT22;5880;52.342;9.662;2023-02-20T01:34:03;9.60;67.50
11647;DHT22;5880;52.342;9.662;2023-02-20T01:36:29;9.60;67.50
11647;DHT22;5880;52.342;9.662;2023-02-20T01:38:55;9.60;67.50
11647;DHT22;5880;52.342;9.662;2023-02-20T01:41:22;9.60;67.50
11647;DHT22;5880;52.342;9.662;2023-02-20T01:43:49;9.60;67.50
11647;DHT22;5880;52.342;9.662;2023-02-20T01:49:05;9.50;67.50
11647;DHT22;5880;52.342;9.662;2023-02-20T01:51:43;9.60;67.40
11647;DHT22;5880;52.342;9.662;2023-02-20T01:54:16;9.50;67.40
11647;DHT22;5880;52.342;9.662;2023-02-20T01:56:46;9.50;67.40
11647;DHT22;5880;52.342;9.662;2023-02-20T01:59:13;9.50;67.40
11647;DHT22;5880;52.342;9.662;2023-02-20T02:01:41;9.50;67.40
11647;DHT22;5880;52.342;9.662;2023-02-20T02:04:08;9.50;67.40
11647;DHT22;5880;52.342;9.662;2023-02-20T02:06:40;9.50;67.30
11647;DHT22;5880;52.342;9.662;2023-02-20T02:09:17;9.50;67.30
11647;DHT22;5880;52.342;9.662;2023-02-20T02:11:51;9.50;67.30
11647;DHT22;5880;52.342;9.662;2023-02-20T02:14:17;9.40;67.20
11647;DHT22;5880;52.342;9.662;2023-02-20T02:26:48;9.30;67.10
11647;DHT22;5880;52.342;9.662;2023-02-20T02:36:12;9.20;67.20
11647;DHT22;5880;52.342;9.662;2023-02-20T02:42:25;9.10;67.30
11647;DHT22;5880;52.342;9.662;2023-02-20T02:45:34;9.00;67.40
11647;DHT22;5880;52.342;9.662;2023-02-20T02:48:13;9.00;67.60
11647;DHT22;5880;52.342;9.662;2023-02-20T02:50:46;9.00;67.50
11647;DHT22;5880;52.342;9.662;2023-02-20T02:53:14;9.00;67.60
11647;DHT22;5880;52.342;9.662;2023-02-20T02:55:40;8.90;67.80
11647;DHT22;5880;52.342;9.662;2023-02-20T02:58:06;9.00;67.90
11647;DHT22;5880;52.342;9.662;2023-02-20T03:00:54;9.00;68.10
11647;DHT22;5880;52.342;9.662;2023-02-20T03:03:28;9.00;68.40
11647;DHT22;5880;52.342;9.662;2023-02-20T03:06:16;9.00;68.40
11647;DHT22;5880;52.342;9.662;2023-02-20T03:08:54;9.00;68.40
11647;DHT22;5880;52.342;9.662;2023-02-20T03:11:28;9.10;68.40
11647;DHT22;5880;52.342;9.662;2023-02-20T03:14:03;9.10;68.40
11647;DHT22;5880;52.342;9.662;2023-02-20T03:19:55;9.20;68.30
11647;DHT22;5880;52.342;9.662;2023-02-20T03:22:27;9.20;68.20
11647;DHT22;5880;52.342;9.662;2023-02-20T03:25:20;9.30;68.30
11647;DHT22;5880;52.342;9.662;2023-02-20T03:33:16;9.30;68.20
11647;DHT22;5880;52.342;9.662;2023-02-20T03:36:06;9.30;68.20
11647;DHT22;5880;52.342;9.662;2023-02-20T03:39:03;9.30;68.10
11647;DHT22;5880;52.342;9.662;2023-02-20T03:41:53;9.40;68.10
11647;DHT22;5880;52.342;9.662;2023-02-20T03:44:41;9.40;68.10
11647;DHT22;5880;52.342;9.662;2023-02-20T03:47:09;9.40;68.10
11647;DHT22;5880;52.342;9.662;2023-02-20T03:49:41;9.50;68.20
11647;DHT22;5880;52.342;9.662;2023-02-20T03:52:27;9.50;68.30
11647;DHT22;5880;52.342;9.662;2023-02-20T03:54:53;9.50;68.10
11647;DHT22;5880;52.342;9.662;2023-02-20T03:57:24;9.60;68.10
11647;DHT22;5880;52.342;9.662;2023-02-20T04:00:03;9.60;68.00
11647;DHT22;5880;52.342;9.662;2023-02-20T04:02:41;9.60;67.90
11647;DHT22;5880;52.342;9.662;2023-02-20T04:05:16;9.60;67.90
11647;DHT22;5880;52.342;9.662;2023-02-20T04:07:57;9.60;67.90
11647;DHT22;5880;52.342;9.662;2023-02-20T04:10:31;9.70;68.00
11647;DHT22;5880;52.342;9.662;2023-02-20T04:13:02;9.70;68.00
11647;DHT22;5880;52.342;9.662;2023-02-20T04:15:30;9.70;68.00
11647;DHT22;5880;52.342;9.662;2023-02-20T04:18:04;9.70;68.00
11647;DHT22;5880;52.342;9.662;2023-02-20T04:20:34;9.70;68.00
11647;DHT22;5880;52.342;9.662;2023-02-20T04:23:06;9.80;68.00
11647;DHT22;5880;52.342;9.662;2023-02-20T04:25:43;9.80;67.90
11647;DHT22;5880;52.342;9.662;2023-02-20T04:28:10;9.80;68.00
11647;DHT22;5880;52.342;9.662;2023-02-20T04:30:37;9.80;68.70
11647;DHT22;5880;52.342;9.662;2023-02-20T04:33:03;9.90;68.00
11647;DHT22;5880;52.342;9.662;2023-02-20T04:35:29;9.90;67.90
11647;DHT22;5880;52.342;9.662;2023-02-20T04:37:55;9.90;67.90
11647;DHT22;5880;52.342;9.662;2023-02-20T04:40:22;9.90;67.70
11647;DHT22;5880;52.342;9.662;2023-02-20T04:42:49;9.90;67.60
11647;DHT22;5880;52.342;9.662;2023-02-20T04:45:15;10.00;67.60
11647;DHT22;5880;52.342;9.662;2023-02-20T04:47:44;9.90;67.60
11647;DHT22;5880;52.342;9.662;2023-02-20T04:50:23;10.00;67.60
11647;DHT22;5880;52.342;9.662;2023-02-20T04:52:54;10.00;67.40
11647;DHT22;5880;52.342;9.662;2023-02-20T04:55:20;10.00;67.50
11647;DHT22;5880;52.342;9.662;2023-02-20T04:57:46;10.00;67.60
11647;DHT22;5880;52.342;9.662;2023-02-20T05:00:14;10.00;67.40
11647;DHT22;5880;52.342;9.662;2023-02-20T05:02:42;10.10;67.60
11647;DHT22;5880;52.342;9.662;2023-02-20T05:05:23;10.00;67.50
11647;DHT22;5880;52.342;9.662;2023-02-20T05:07:55;10.00;67.50
11647;DHT22;5880;52.342;9.662;2023-02-20T05:10:24;10.00;67.50
11647;DHT22;5880;52.342;9.662;2023-02-20T05:12:50;10.00;67.70
11647;DHT22;5880;52.342;9.662;2023-02-20T05:15:17;10.00;67.60
11647;DHT22;5880;52.342;9.662;2023-02-20T05:17:43;10.00;67.70
11647;DHT22;5880;52.342;9.662;2023-02-20T05:20:10;10.00;67.70
11647;DHT22;5880;52.342;9.662;2023-02-20T05:22:36;10.10;67.70
11647;DHT22;5880;52.342;9.662;2023-02-20T05:25:02;10.20;68.50
11647;DHT22;5880;52.342;9.662;2023-02-20T05:27:29;10.20;67.70
11647;DHT22;5880;52.342;9.662;2023-02-20T05:29:58;10.20;67.60
11647;DHT22;5880;52.342;9.662;2023-02-20T05:32:27;10.30;67.70
11647;DHT22;5880;52.342;9.662;2023-02-20T05:34:54;10.20;67.50
11647;DHT22;5880;52.342;9.662;2023-02-20T05:37:21;10.20;67.50
11647;DHT22;5880;52.342;9.662;2023-02-20T05:39:48;10.20;67.50
11647;DHT22;5880;52.342;9.662;2023-02-20T05:42:15;10.20;67.40
11647;DHT22;5880;52.342;9.662;2023-02-20T05:44:41;10.20;67.30
11647;DHT22;5880;52.342;9.662;2023-02-20T05:47:07;10.20;67.50
11647;DHT22;5880;52.342;9.662;2023-02-20T05:49:34;10.20;67.30
11647;DHT22;5880;52.342;9.662;2023-02-20T05:52:02;10.20;67.20
11647;DHT22;5880;52.342;9.662;2023-02-20T05:54:36;10.20;67.30
11647;DHT22;5880;52.342;9.662;2023-02-20T05:57:05;10.50;67.50
11647;DHT22;5880;52.342;9.662;2023-02-20T05:59:32;10.20;67.30
11647;DHT22;5880;52.342;9.662;2023-02-20T06:01:59;10.20;67.30
11647;DHT22;5880;52.342;9.662;2023-02-20T06:04:25;10.20;67.20
11647;DHT22;5880;52.342;9.662;2023-02-20T06:06:51;10.20;67.30
11647;DHT22;5880;52.342;9.662;2023-02-20T06:09:17;10.20;67.10
11647;DHT22;5880;52.342;9.662;2023-02-20T06:11:51;10.20;67.30
11647;DHT22;5880;52.342;9.662;2023-02-20T06:14:19;10.30;67.30
11647;DHT22;5880;52.342;9.662;2023-02-20T06:16:46;10.20;67.20
11647;DHT22;5880;52.342;9.662;2023-02-20T06:19:21;10.20;67.20
11647;DHT22;5880;52.342;9.662;2023-02-20T06:21:50;10.20;67.10
11647;DHT22;5880;52.342;9.662;2023-02-20T06:24:18;10.20;67.20
11647;DHT22;5880;52.342;9.662;2023-02-20T06:26:45;10.30;67.30
11647;DHT22;5880;52.342;9.662;2023-02-20T06:29:13;10.30;67.30
11647;DHT22;5880;52.342;9.662;2023-02-20T06:31:40;10.30;67.30
11647;DHT22;5880;52.342;9.662;2023-02-20T06:34:06;10.30;67.20
11647;DHT22;5880;52.342;9.662;2023-02-20T06:36:35;10.30;67.20
11647;DHT22;5880;52.342;9.662;2023-02-20T06:39:04;10.30;67.20
11647;DHT22;5880;52.342;9.662;2023-02-20T06:41:31;10.30;67.20
11647;DHT22;5880;52.342;9.662;2023-02-20T06:43:57;10.30;67.20
11647;DHT22;5880;52.342;9.662;2023-02-20T06:46:23;10.30;67.20
11647;DHT22;5880;52.342;9.662;2023-02-20T06:48:51;10.30;67.20
11647;DHT22;5880;52.342;9.662;2023-02-20T06:51:21;10.30;67.10
11647;DHT22;5880;52.342;9.662;2023-02-20T06:53:51;10.30;67.20
11647;DHT22;5880;52.342;9.662;2023-02-20T06:56:19;10.30;67.10
11647;DHT22;5880;52.342;9.662;2023-02-20T06:58:49;10.30;67.00
11647;DHT22;5880;52.342;9.662;2023-02-20T07:01:17;10.40;67.10
11647;DHT22;5880;52.342;9.662;2023-02-20T07:03:45;10.30;67.10
11647;DHT22;5880;52.342;9.662;2023-02-20T07:06:14;10.30;67.10
11647;DHT22;5880;52.342;9.662;2023-02-20T07:08:40;10.30;67.10
11647;DHT22;5880;52.342;9.662;2023-02-20T07:11:06;10.30;67.00
11647;DHT22;5880;52.342;9.662;2023-02-20T07:13:31;10.30;67.00
11647;DHT22;5880;52.342;9.662;2023-02-20T07:15:57;10.30;66.90
11647;DHT22;5880;52.342;9.662;2023-02-20T07:18:22;10.30;66.90
11647;DHT22;5880;52.342;9.662;2023-02-20T07:20:57;10.30;66.90
11647;DHT22;5880;52.342;9.662;2023-02-20T07:23:23;10.30;66.90
11647;DHT22;5880;52.342;9.662;2023-02-20T07:25:49;10.30;66.90
11647;DHT22;5880;52.342;9.662;2023-02-20T07:28:17;10.30;66.80
11647;DHT22;5880;52.342;9.662;2023-02-20T07:30:44;10.30;66.80
11647;DHT22;5880;52.342;9.662;2023-02-20T07:33:14;10.30;66.80
11647;DHT22;5880;52.342;9.662;2023-02-20T07:35:40;10.30;66.90
11647;DHT22;5880;52.342;9.662;2023-02-20T07:38:06;10.40;66.80
11647;DHT22;5880;52.342;9.662;2023-02-20T07:40:32;10.30;66.90
11647;DHT22;5880;52.342;9.662;2023-02-20T07:42:58;10.30;66.90
11647;DHT22;5880;52.342;9.662;2023-02-20T07:45:23;10.10;66.80
11647;DHT22;5880;52.342;9.662;2023-02-20T07:47:50;10.30;67.00
11647;DHT22;5880;52.342;9.662;2023-02-20T07:50:16;10.30;67.10
11647;DHT22;5880;52.342;9.662;2023-02-20T07:52:44;10.40;67.20
11647;DHT22;5880;52.342;9.662;2023-02-20T07:55:17;10.30;67.00
11647;DHT22;5880;52.342;9.662;2023-02-20T07:57:46;10.30;67.00
11647;DHT22;5880;52.342;9.662;2023-02-20T08:00:17;10.30;67.10
11647;DHT22;5880;52.342;9.662;2023-02-20T08:02:44;10.40;66.90
11647;DHT22;5880;52.342;9.662;2023-02-20T08:05:11;10.40;67.00
11647;DHT22;5880;52.342;9.662;2023-02-20T08:07:37;10.40;67.00
11647;DHT22;5880;52.342;9.662;2023-02-20T08:10:04;10.40;67.00
11647;DHT22;5880;52.342;9.662;2023-02-20T08:12:30;10.50;67.20
11647;DHT22;5880;52.342;9.662;2023-02-20T08:14:56;10.40;67.10
11647;DHT22;5880;52.342;9.662;2023-02-20T08:17:21;10.50;67.20
11647;DHT22;5880;52.342;9.662;2023-02-20T08:19:47;10.50;67.10
11647;DHT22;5880;52.342;9.662;2023-02-20T08:22:13;10.50;67.00
11647;DHT22;5880;52.342;9.662;2023-02-20T08:24:38;10.50;66.90
11647;DHT22;5880;52.342;9.662;2023-02-20T08:27:04;10.50;67.10
11647;DHT22;5880;52.342;9.662;2023-02-20T08:29:30;10.50;67.00
11647;DHT22;5880;52.342;9.662;2023-02-20T08:31:55;10.60;66.90
11647;DHT22;5880;52.342;9.662;2023-02-20T08:34:21;10.60;66.90
11647;DHT22;5880;52.342;9.662;2023-02-20T08:36:47;10.60;67.00
11647;DHT22;5880;52.342;9.662;2023-02-20T08:39:12;10.60;67.20
11647;DHT22;5880;52.342;9.662;2023-02-20T08:41:45;10.60;67.00
11647;DHT22;5880;52.342;9.662;2023-02-20T08:44:12;10.70;66.90
11647;DHT22;5880;52.342;9.662;2023-02-20T08:46:45;10.70;67.30
11647;DHT22;5880;52.342;9.662;2023-02-20T08:49:16;10.80;67.10
11647;DHT22;5880;52.342;9.662;2023-02-20T08:51:44;10.80;67.30
11647;DHT22;5880;52.342;9.662;2023-02-20T08:54:11;10.80;67.30
11647;DHT22;5880;52.342;9.662;2023-02-20T08:56:37;10.90;67.20
11647;DHT22;5880;52.342;9.662;2023-02-20T08:59:02;10.90;67.20
11647;DHT22;5880;52.342;9.662;2023-02-20T09:01:28;11.00;67.10
11647;DHT22;5880;52.342;9.662;2023-02-20T09:03:54;11.00;67.10
11647;DHT22;5880;52.342;9.662;2023-02-20T09:06:20;11.10;67.20
11647;DHT22;5880;52.342;9.662;2023-02-20T09:08:48;11.10;67.20
11647;DHT22;5880;52.342;9.662;2023-02-20T09:11:14;11.10;67.30
11647;DHT22;5880;52.342;9.662;2023-02-20T09:13:42;11.20;67.20
11647;DHT22;5880;52.342;9.662;2023-02-20T09:16:08;11.20;67.00
11647;DHT22;5880;52.342;9.662;2023-02-20T09:18:34;11.30;67.10
11647;DHT22;5880;52.342;9.662;2023-02-20T09:21:00;11.30;66.60
11647;DHT22;5880;52.342;9.662;2023-02-20T09:23:25;11.30;66.80
11647;DHT22;5880;52.342;9.662;2023-02-20T09:25:51;11.30;66.70
11647;DHT22;5880;52.342;9.662;2023-02-20T09:28:18;11.30;66.60
11647;DHT22;5880;52.342;9.662;2023-02-20T09:30:44;11.30;66.70
11647;DHT22;5880;52.342;9.662;2023-02-20T09:33:10;11.30;66.70
11647;DHT22;5880;52.342;9.662;2023-02-20T09:35:35;11.30;66.70
11647;DHT22;5880;52.342;9.662;2023-02-20T09:38:01;11.30;66.90
11647;DHT22;5880;52.342;9.662;2023-02-20T09:40:29;11.30;66.80
11647;DHT22;5880;52.342;9.662;2023-02-20T09:46:24;11.30;67.00
11647;DHT22;5880;52.342;9.662;2023-02-20T09:49:24;11.30;66.70
11647;DHT22;5880;52.342;9.662;2023-02-20T09:52:00;11.30;66.90
11647;DHT22;5880;52.342;9.662;2023-02-20T09:54:32;11.30;67.00
11647;DHT22;5880;52.342;9.662;2023-02-20T09:57:05;11.30;67.10
11647;DHT22;5880;52.342;9.662;2023-02-20T09:59:48;11.30;67.10
11647;DHT22;5880;52.342;9.662;2023-02-20T10:02:37;11.30;67.00
11647;DHT22;5880;52.342;9.662;2023-02-20T10:05:20;11.30;67.00
11647;DHT22;5880;52.342;9.662;2023-02-20T10:07:49;11.30;67.20
11647;DHT22;5880;52.342;9.662;2023-02-20T10:10:22;11.30;67.20
11647;DHT22;5880;52.342;9.662;2023-02-20T10:16:18;11.40;67.20
11647;DHT22;5880;52.342;9.662;2023-02-20T10:19:33;11.30;67.30
11647;DHT22;5880;52.342;9.662;2023-02-20T10:22:31;11.30;67.30
11647;DHT22;5880;52.342;9.662;2023-02-20T10:25:17;11.30;67.20
11647;DHT22;5880;52.342;9.662;2023-02-20T10:28:08;11.20;67.10
11647;DHT22;5880;52.342;9.662;2023-02-20T10:30:43;11.30;67.40
11647;DHT22;5880;52.342;9.662;2023-02-20T10:36:22;11.20;67.50
11647;DHT22;5880;52.342;9.662;2023-02-20T10:39:06;11.20;67.70
11647;DHT22;5880;52.342;9.662;2023-02-20T10:47:51;11.20;67.60
11647;DHT22;5880;52.342;9.662;2023-02-20T10:50:45;11.30;67.80
11647;DHT22;5880;52.342;9.662;2023-02-20T10:53:39;11.30;67.80
11647;DHT22;5880;52.342;9.662;2023-02-20T10:56:25;11.30;67.80
11647;DHT22;5880;52.342;9.662;2023-02-20T10:59:07;11.30;67.80
11647;DHT22;5880;52.342;9.662;2023-02-20T11:01:43;11.30;67.70
11647;DHT22;5880;52.342;9.662;2023-02-20T11:04:24;11.30;67.70
11647;DHT22;5880;52.342;9.662;2023-02-20T11:07:00;11.30;67.80
11647;DHT22;5880;52.342;9.662;2023-02-20T11:09:30;11.20;67.60
11647;DHT22;5880;52.342;9.662;2023-02-20T11:11:56;11.30;67.80
11647;DHT22;5880;52.342;9.662;2023-02-20T11:14:33;11.20;67.70
11647;DHT22;5880;52.342;9.662;2023-02-20T11:17:12;11.30;68.10
11647;DHT22;5880;52.342;9.662;2023-02-20T11:19:46;11.30;68.00
11647;DHT22;5880;52.342;9.662;2023-02-20T11:22:15;11.30;68.00
11647;DHT22;5880;52.342;9.662;2023-02-20T11:24:45;11.30;67.90
11647;DHT22;5880;52.342;9.662;2023-02-20T11:27:15;11.30;67.90
11647;DHT22;5880;52.342;9.662;2023-02-20T11:30:03;11.20;67.80
11647;DHT22;5880;52.342;9.662;2023-02-20T11:32:45;11.20;67.70
11647;DHT22;5880;52.342;9.662;2023-02-20T11:37:42;11.20;67.80
11647;DHT22;5880;52.342;9.662;2023-02-20T11:40:20;11.20;67.90
11647;DHT22;5880;52.342;9.662;2023-02-20T11:42:51;11.20;68.00
11647;DHT22;5880;52.342;9.662;2023-02-20T11:45:24;11.20;67.90
11647;DHT22;5880;52.342;9.662;2023-02-20T11:48:12;11.20;67.90
11647;DHT22;5880;52.342;9.662;2023-02-20T11:50:44;11.20;68.00
11647;DHT22;5880;52.342;9.662;2023-02-20T11:53:22;11.10;68.00
11647;DHT22;5880;52.342;9.662;2023-02-20T11:56:07;11.20;68.10
11647;DHT22;5880;52.342;9.662;2023-02-20T11:58:36;11.10;68.20
11647;DHT22;5880;52.342;9.662;2023-02-20T12:01:03;11.10;68.10
11647;DHT22;5880;52.342;9.662;2023-02-20T12:03:34;11.10;68.10
11647;DHT22;5880;52.342;9.662;2023-02-20T12:06:26;11.10;68.30
11647;DHT22;5880;52.342;9.662;2023-02-20T12:09:04;11.10;68.20
11647;DHT22;5880;52.342;9.662;2023-02-20T12:11:36;11.10;68.30
11647;DHT22;5880;52.342;9.662;2023-02-20T12:14:01;11.10;68.30
11647;DHT22;5880;52.342;9.662;2023-02-20T12:19:47;11.10;68.50
11647;DHT22;5880;52.342;9.662;2023-02-20T12:22:35;11.10;68.70
11647;DHT22;5880;52.342;9.662;2023-02-20T12:28:39;11.10;68.70
11647;DHT22;5880;52.342;9.662;2023-02-20T12:31:49;11.10;68.70
11647;DHT22;5880;52.342;9.662;2023-02-20T12:41:07;11.10;68.90
11647;DHT22;5880;52.342;9.662;2023-02-20T12:58:58;11.20;69.70
11647;DHT22;5880;52.342;9.662;2023-02-20T13:01:26;11.20;69.80
11647;DHT22;5880;52.342;9.662;2023-02-20T13:11:43;11.20;69.70
11647;DHT22;5880;52.342;9.662;2023-02-20T13:19:53;11.20;70.00
11647;DHT22;5880;52.342;9.662;2023-02-20T13:22:25;11.30;70.10
11647;DHT22;5880;52.342;9.662;2023-02-20T13:24:50;11.20;69.70
11647;DHT22;5880;52.342;9.662;2023-02-20T13:27:30;11.20;69.80
11647;DHT22;5880;52.342;9.662;2023-02-20T13:30:02;11.20;70.30
11647;DHT22;5880;52.342;9.662;2023-02-20T13:32:44;11.20;70.00
11647;DHT22;5880;52.342;9.662;2023-02-20T13:38:10;11.30;70.50
11647;DHT22;5880;52.342;9.662;2023-02-20T13:41:04;11.30;70.20
11647;DHT22;5880;52.342;9.662;2023-02-20T13:43:36;11.30;70.40
11647;DHT22;5880;52.342;9.662;2023-02-20T13:48:37;11.30;70.20
11647;DHT22;5880;52.342;9.662;2023-02-20T13:56:20;11.50;70.30
11647;DHT22;5880;52.342;9.662;2023-02-20T13:58:54;11.50;70.30
11647;DHT22;5880;52.342;9.662;2023-02-20T14:01:22;11.50;70.10
11647;DHT22;5880;52.342;9.662;2023-02-20T14:04:03;11.50;70.00
11647;DHT22;5880;52.342;9.662;2023-02-20T14:06:30;11.50;70.30
11647;DHT22;5880;52.342;9.662;2023-02-20T14:09:12;11.50;69.90
11647;DHT22;5880;52.342;9.662;2023-02-20T14:11:43;11.60;70.30
11647;DHT22;5880;52.342;9.662;2023-02-20T14:14:19;11.60;70.00
11647;DHT22;5880;52.342;9.662;2023-02-20T14:16:51;11.50;70.00
11647;DHT22;5880;52.342;9.662;2023-02-20T14:19:27;11.60;70.00
11647;DHT22;5880;52.342;9.662;2023-02-20T14:21:54;11.60;70.00
11647;DHT22;5880;52.342;9.662;2023-02-20T14:24:28;11.60;70.10
11647;DHT22;5880;52.342;9.662;2023-02-20T14:26:54;11.60;70.30
11647;DHT22;5880;52.342;9.662;2023-02-20T14:29:25;11.60;70.10
11647;DHT22;5880;52.342;9.662;2023-02-20T14:31:54;11.60;70.10
11647;DHT22;5880;52.342;9.662;2023-02-20T14:40:23;11.60;70.00
11647;DHT22;5880;52.342;9.662;2023-02-20T14:43:01;11.60;70.60
11647;DHT22;5880;52.342;9.662;2023-02-20T14:45:28;11.60;70.20
11647;DHT22;5880;52.342;9.662;2023-02-20T14:47:59;11.60;70.30
11647;DHT22;5880;52.342;9.662;2023-02-20T14:50:29;11.60;70.60
11647;DHT22;5880;52.342;9.662;2023-02-20T14:53:05;11.60;70.50
11647;DHT22;5880;52.342;9.662;2023-02-20T14:55:37;11.60;70.80
11647;DHT22;5880;52.342;9.662;2023-02-20T14:58:09;11.50;70.70
11647;DHT22;5880;52.342;9.662;2023-02-20T15:00:40;11.50;70.70
11647;DHT22;5880;52.342;9.662;2023-02-20T15:03:10;11.50;70.60
11647;DHT22;5880;52.342;9.662;2023-02-20T15:05:45;11.50;70.70
11647;DHT22;5880;52.342;9.662;2023-02-20T15:08:19;11.50;70.70
11647;DHT22;5880;52.342;9.662;2023-02-20T15:10:53;11.50;71.00
11647;DHT22;5880;52.342;9.662;2023-02-20T15:13:24;11.50;71.00
11647;DHT22;5880;52.342;9.662;2023-02-20T15:16:11;11.50;70.90
11647;DHT22;5880;52.342;9.662;2023-02-20T15:18:43;11.50;71.30
11647;DHT22;5880;52.342;9.662;2023-02-20T15:21:11;11.50;71.10
11647;DHT22;5880;52.342;9.662;2023-02-20T15:23:54;11.50;70.90
11647;DHT22;5880;52.342;9.662;2023-02-20T15:26:35;11.50;71.10
11647;DHT22;5880;52.342;9.662;2023-02-20T15:32:01;11.50;71.30
11647;DHT22;5880;52.342;9.662;2023-02-20T15:34:54;11.50;71.30
11647;DHT22;5880;52.342;9.662;2023-02-20T15:37:27;11.50;71.10
11647;DHT22;5880;52.342;9.662;2023-02-20T15:40:04;11.50;71.10
11647;DHT22;5880;52.342;9.662;2023-02-20T15:42:49;11.60;70.90
11647;DHT22;5880;52.342;9.662;2023-02-20T15:45:27;11.50;71.10
11647;DHT22;5880;52.342;9.662;2023-02-20T15:47:54;11.50;71.00
11647;DHT22;5880;52.342;9.662;2023-02-20T15:50:22;11.50;71.20
11647;DHT22;5880;52.342;9.662;2023-02-20T15:52:50;11.50;71.10
11647;DHT22;5880;52.342;9.662;2023-02-20T15:55:18;11.60;71.00
11647;DHT22;5880;52.342;9.662;2023-02-20T15:57:47;11.60;71.00
11647;DHT22;5880;52.342;9.662;2023-02-20T16:00:25;11.50;71.20
11647;DHT22;5880;52.342;9.662;2023-02-20T16:02:54;11.50;71.30
11647;DHT22;5880;52.342;9.662;2023-02-20T16:05:20;11.50;71.10
11647;DHT22;5880;52.342;9.662;2023-02-20T16:07:47;11.50;70.90
11647;DHT22;5880;52.342;9.662;2023-02-20T16:10:17;11.50;71.10
11647;DHT22;5880;52.342;9.662;2023-02-20T16:12:47;11.50;71.30
11647;DHT22;5880;52.342;9.662;2023-02-20T16:15:18;11.50;71.70
11647;DHT22;5880;52.342;9.662;2023-02-20T16:17:46;11.40;71.30
11647;DHT22;5880;52.342;9.662;2023-02-20T16:20:31;11.40;71.20
11647;DHT22;5880;52.342;9.662;2023-02-20T16:22:56;11.40;72.30
11647;DHT22;5880;52.342;9.662;2023-02-20T16:25:23;11.40;71.50
11647;DHT22;5880;52.342;9.662;2023-02-20T16:27:52;11.40;71.60
11647;DHT22;5880;52.342;9.662;2023-02-20T16:30:36;11.30;71.80
11647;DHT22;5880;52.342;9.662;2023-02-20T16:33:14;11.40;71.90
11647;DHT22;5880;52.342;9.662;2023-02-20T16:35:41;11.40;72.20
11647;DHT22;5880;52.342;9.662;2023-02-20T16:38:07;11.40;71.70
11647;DHT22;5880;52.342;9.662;2023-02-20T16:40:33;11.40;71.60
11647;DHT22;5880;52.342;9.662;2023-02-20T16:43:00;11.40;71.80
11647;DHT22;5880;52.342;9.662;2023-02-20T16:45:25;11.40;71.60
11647;DHT22;5880;52.342;9.662;2023-02-20T16:47:53;11.40;72.00
11647;DHT22;5880;52.342;9.662;2023-02-20T16:50:22;11.10;71.90
11647;DHT22;5880;52.342;9.662;2023-02-20T16:52:51;11.40;72.10
11647;DHT22;5880;52.342;9.662;2023-02-20T16:55:29;11.40;72.30
11647;DHT22;5880;52.342;9.662;2023-02-20T16:57:57;11.40;72.10
11647;DHT22;5880;52.342;9.662;2023-02-20T17:00:26;11.40;72.00
11647;DHT22;5880;52.342;9.662;2023-02-20T17:02:53;10.80;71.70
11647;DHT22;5880;52.342;9.662;2023-02-20T17:05:21;11.50;72.00
11647;DHT22;5880;52.342;9.662;2023-02-20T17:07:49;11.50;72.00
11647;DHT22;5880;52.342;9.662;2023-02-20T17:10:15;11.50;72.00
11647;DHT22;5880;52.342;9.662;2023-02-20T17:12:41;11.50;72.00
11647;DHT22;5880;52.342;9.662;2023-02-20T17:15:07;11.50;72.10
11647;DHT22;5880;52.342;9.662;2023-02-20T17:17:34;11.50;72.10
11647;DHT22;5880;52.342;9.662;2023-02-20T17:20:00;11.50;72.30
11647;DHT22;5880;52.342;9.662;2023-02-20T17:22:28;11.50;72.40
11647;DHT22;5880;52.342;9.662;2023-02-20T17:24:54;11.50;72.10
11647;DHT22;5880;52.342;9.662;2023-02-20T17:27:21;11.50;72.10
11647;DHT22;5880;52.342;9.662;2023-02-20T17:29:47;11.50;72.00
11647;DHT22;5880;52.342;9.662;2023-02-20T17:32:14;11.50;72.10
11647;DHT22;5880;52.342;9.662;2023-02-20T17:34:40;11.50;72.10
11647;DHT22;5880;52.342;9.662;2023-02-20T17:37:07;11.50;72.30
11647;DHT22;5880;52.342;9.662;2023-02-20T17:39:34;11.50;72.30
11647;DHT22;5880;52.342;9.662;2023-02-20T17:41:59;11.50;72.20
11647;DHT22;5880;52.342;9.662;2023-02-20T17:44:29;11.50;72.20
11647;DHT22;5880;52.342;9.662;2023-02-20T17:46:57;11.50;72.50
11647;DHT22;5880;52.342;9.662;2023-02-20T17:49:25;11.50;72.30
11647;DHT22;5880;52.342;9.662;2023-02-20T17:51:54;11.50;72.40
11647;DHT22;5880;52.342;9.662;2023-02-20T17:54:23;11.50;72.30
11647;DHT22;5880;52.342;9.662;2023-02-20T17:56:49;11.50;72.20
11647;DHT22;5880;52.342;9.662;2023-02-20T17:59:16;11.60;72.30
11647;DHT22;5880;52.342;9.662;2023-02-20T18:01:43;11.60;72.20
11647;DHT22;5880;52.342;9.662;2023-02-20T18:04:09;11.60;72.10
11647;DHT22;5880;52.342;9.662;2023-02-20T18:06:36;11.60;72.00